sensor_id;sensor_type;location;lat;lon;timestamp;P1;durP1;ratioP1;P2;durP2;ratioP2
17763;SDS011;22245;52.832;13.816;2022-10-31T00:01:29;19.45;;;8.68;;
17763;SDS011;22245;52.832;13.816;2022-10-31T00:04:52;20.10;;;10.43;;
17763;SDS011;22245;52.832;13.816;2022-10-31T00:08:19;19.33;;;9.32;;
17763;SDS011;22245;52.832;13.816;2022-10-31T00:11:41;27.07;;;11.40;;
17763;SDS011;22245;52.832;13.816;2022-10-31T00:15:03;23.93;;;12.03;;
17763;SDS011;22245;52.832;13.816;2022-10-31T00:18:25;27.90;;;14.53;;
17763;SDS011;22245;52.832;13.816;2022-10-31T00:21:51;25.43;;;13.93;;
17763;SDS011;22245;52.832;13.816;2022-10-31T00:25:13;27.63;;;16.67;;
17763;SDS011;22245;52.832;13.816;2022-10-31T00:28:35;29.93;;;17.27;;
17763;SDS011;22245;52.832;13.816;2022-10-31T00:31:57;32.30;;;20.17;;
17763;SDS011;22245;52.832;13.816;2022-10-31T00:35:19;34.13;;;19.13;;
17763;SDS011;22245;52.832;13.816;2022-10-31T00:38:41;32.60;;;17.13;;
17763;SDS011;22245;52.832;13.816;2022-10-31T00:42:04;29.98;;;16.00;;
17763;SDS011;22245;52.832;13.816;2022-10-31T00:45:25;22.37;;;14.60;;
17763;SDS011;22245;52.832;13.816;2022-10-31T00:48:49;23.92;;;13.32;;
17763;SDS011;22245;52.832;13.816;2022-10-31T00:52:22;18.40;;;11.50;;
17763;SDS011;22245;52.832;13.816;2022-10-31T00:55:44;15.88;;;11.25;;
17763;SDS011;22245;52.832;13.816;2022-10-31T00:59:07;24.45;;;12.25;;
17763;SDS011;22245;52.832;13.816;2022-10-31T01:02:28;23.08;;;11.40;;
17763;SDS011;22245;52.832;13.816;2022-10-31T01:05:57;22.77;;;11.68;;
17763;SDS011;22245;52.832;13.816;2022-10-31T01:09:20;22.02;;;9.05;;
17763;SDS011;22245;52.832;13.816;2022-10-31T01:12:43;21.55;;;10.80;;
17763;SDS011;22245;52.832;13.816;2022-10-31T01:16:09;17.88;;;9.05;;
17763;SDS011;22245;52.832;13.816;2022-10-31T01:19:32;28.02;;;9.98;;
17763;SDS011;22245;52.832;13.816;2022-10-31T01:22:57;19.38;;;10.80;;
17763;SDS011;22245;52.832;13.816;2022-10-31T01:26:20;21.10;;;10.70;;
17763;SDS011;22245;52.832;13.816;2022-10-31T01:29:44;18.27;;;10.23;;
17763;SDS011;22245;52.832;13.816;2022-10-31T01:33:07;20.73;;;10.07;;
17763;SDS011;22245;52.832;13.816;2022-10-31T01:36:29;20.57;;;10.27;;
17763;SDS011;22245;52.832;13.816;2022-10-31T01:39:53;21.00;;;8.90;;
17763;SDS011;22245;52.832;13.816;2022-10-31T01:43:15;17.17;;;9.60;;
17763;SDS011;22245;52.832;13.816;2022-10-31T01:46:38;18.57;;;9.40;;
17763;SDS011;22245;52.832;13.816;2022-10-31T01:50:06;18.67;;;10.00;;
17763;SDS011;22245;52.832;13.816;2022-10-31T01:53:33;23.03;;;10.33;;
17763;SDS011;22245;52.832;13.816;2022-10-31T01:56:56;21.33;;;11.17;;
17763;SDS011;22245;52.832;13.816;2022-10-31T02:00:19;16.57;;;10.07;;
17763;SDS011;22245;52.832;13.816;2022-10-31T02:03:42;18.85;;;10.57;;
17763;SDS011;22245;52.832;13.816;2022-10-31T02:07:06;26.37;;;11.33;;
17763;SDS011;22245;52.832;13.816;2022-10-31T02:10:31;20.60;;;11.23;;
17763;SDS011;22245;52.832;13.816;2022-10-31T02:13:55;20.93;;;11.80;;
17763;SDS011;22245;52.832;13.816;2022-10-31T02:17:17;23.03;;;11.43;;
17763;SDS011;22245;52.832;13.816;2022-10-31T02:20:41;33.67;;;12.00;;
17763;SDS011;22245;52.832;13.816;2022-10-31T02:28:12;19.10;;;11.70;;
17763;SDS011;22245;52.832;13.816;2022-10-31T02:31:47;19.67;;;11.07;;
17763;SDS011;22245;52.832;13.816;2022-10-31T02:35:21;23.43;;;11.23;;
17763;SDS011;22245;52.832;13.816;2022-10-31T02:38:53;23.27;;;11.97;;
17763;SDS011;22245;52.832;13.816;2022-10-31T02:42:33;25.83;;;12.23;;
17763;SDS011;22245;52.832;13.816;2022-10-31T02:46:02;22.70;;;12.03;;
17763;SDS011;22245;52.832;13.816;2022-10-31T02:49:33;23.80;;;11.60;;
17763;SDS011;22245;52.832;13.816;2022-10-31T02:53:02;23.07;;;12.27;;
17763;SDS011;22245;52.832;13.816;2022-10-31T02:56:23;23.93;;;11.43;;
17763;SDS011;22245;52.832;13.816;2022-10-31T02:59:46;18.30;;;11.13;;
17763;SDS011;22245;52.832;13.816;2022-10-31T03:03:10;25.00;;;12.53;;
17763;SDS011;22245;52.832;13.816;2022-10-31T03:06:39;27.00;;;11.60;;
17763;SDS011;22245;52.832;13.816;2022-10-31T03:10:08;23.20;;;11.97;;
17763;SDS011;22245;52.832;13.816;2022-10-31T03:13:39;19.47;;;10.87;;
17763;SDS011;22245;52.832;13.816;2022-10-31T03:17:07;23.87;;;11.57;;
17763;SDS011;22245;52.832;13.816;2022-10-31T03:20:36;18.47;;;10.83;;
17763;SDS011;22245;52.832;13.816;2022-10-31T03:24:01;21.83;;;10.47;;
17763;SDS011;22245;52.832;13.816;2022-10-31T03:27:28;21.10;;;10.40;;
17763;SDS011;22245;52.832;13.816;2022-10-31T03:30:53;21.37;;;10.23;;
17763;SDS011;22245;52.832;13.816;2022-10-31T03:34:16;15.47;;;9.00;;
17763;SDS011;22245;52.832;13.816;2022-10-31T03:37:40;19.83;;;10.07;;
17763;SDS011;22245;52.832;13.816;2022-10-31T03:41:09;18.37;;;9.90;;
17763;SDS011;22245;52.832;13.816;2022-10-31T03:44:33;19.30;;;10.13;;
17763;SDS011;22245;52.832;13.816;2022-10-31T03:47:56;16.63;;;10.40;;
17763;SDS011;22245;52.832;13.816;2022-10-31T03:51:22;18.83;;;10.97;;
17763;SDS011;22245;52.832;13.816;2022-10-31T03:54:50;22.53;;;11.27;;
17763;SDS011;22245;52.832;13.816;2022-10-31T03:58:18;20.23;;;11.40;;
17763;SDS011;22245;52.832;13.816;2022-10-31T04:01:46;20.10;;;11.43;;
17763;SDS011;22245;52.832;13.816;2022-10-31T04:05:12;21.87;;;11.30;;
17763;SDS011;22245;52.832;13.816;2022-10-31T04:08:37;25.23;;;11.43;;
17763;SDS011;22245;52.832;13.816;2022-10-31T04:12:05;18.67;;;10.47;;
17763;SDS011;22245;52.832;13.816;2022-10-31T04:16:04;21.07;;;12.17;;
17763;SDS011;22245;52.832;13.816;2022-10-31T04:19:33;19.27;;;10.97;;
17763;SDS011;22245;52.832;13.816;2022-10-31T04:22:55;17.47;;;10.40;;
17763;SDS011;22245;52.832;13.816;2022-10-31T04:26:16;17.07;;;10.33;;
17763;SDS011;22245;52.832;13.816;2022-10-31T04:29:39;24.73;;;11.17;;
17763;SDS011;22245;52.832;13.816;2022-10-31T04:33:07;21.80;;;11.00;;
17763;SDS011;22245;52.832;13.816;2022-10-31T04:36:29;21.67;;;10.87;;
17763;SDS011;22245;52.832;13.816;2022-10-31T04:39:50;19.70;;;11.20;;
17763;SDS011;22245;52.832;13.816;2022-10-31T04:43:30;29.30;;;11.37;;
17763;SDS011;22245;52.832;13.816;2022-10-31T04:46:53;23.37;;;10.67;;
17763;SDS011;22245;52.832;13.816;2022-10-31T04:50:17;22.60;;;10.33;;
17763;SDS011;22245;52.832;13.816;2022-10-31T04:53:39;21.10;;;10.40;;
17763;SDS011;22245;52.832;13.816;2022-10-31T04:57:20;20.10;;;11.10;;
17763;SDS011;22245;52.832;13.816;2022-10-31T05:00:41;27.23;;;11.63;;
17763;SDS011;22245;52.832;13.816;2022-10-31T05:04:04;22.97;;;12.53;;
17763;SDS011;22245;52.832;13.816;2022-10-31T05:07:27;24.13;;;11.97;;
17763;SDS011;22245;52.832;13.816;2022-10-31T05:10:48;25.30;;;12.07;;
17763;SDS011;22245;52.832;13.816;2022-10-31T05:14:09;20.73;;;11.23;;
17763;SDS011;22245;52.832;13.816;2022-10-31T05:18:09;18.87;;;11.00;;
17763;SDS011;22245;52.832;13.816;2022-10-31T05:21:49;21.30;;;11.10;;
17763;SDS011;22245;52.832;13.816;2022-10-31T05:25:13;21.27;;;12.17;;
17763;SDS011;22245;52.832;13.816;2022-10-31T05:28:35;19.13;;;11.53;;
17763;SDS011;22245;52.832;13.816;2022-10-31T05:31:57;20.57;;;11.53;;
17763;SDS011;22245;52.832;13.816;2022-10-31T05:35:50;22.20;;;10.97;;
17763;SDS011;22245;52.832;13.816;2022-10-31T05:39:24;17.43;;;10.80;;
17763;SDS011;22245;52.832;13.816;2022-10-31T05:42:51;18.87;;;11.17;;
17763;SDS011;22245;52.832;13.816;2022-10-31T05:46:14;21.83;;;10.60;;
17763;SDS011;22245;52.832;13.816;2022-10-31T05:49:56;17.33;;;10.40;;
17763;SDS011;22245;52.832;13.816;2022-10-31T05:53:37;24.30;;;10.53;;
17763;SDS011;22245;52.832;13.816;2022-10-31T05:56:59;23.97;;;11.50;;
17763;SDS011;22245;52.832;13.816;2022-10-31T06:00:22;23.20;;;11.47;;
17763;SDS011;22245;52.832;13.816;2022-10-31T06:03:45;23.33;;;11.10;;
17763;SDS011;22245;52.832;13.816;2022-10-31T06:07:08;22.47;;;11.50;;
17763;SDS011;22245;52.832;13.816;2022-10-31T06:10:30;26.33;;;11.07;;
17763;SDS011;22245;52.832;13.816;2022-10-31T06:13:52;27.83;;;11.70;;
17763;SDS011;22245;52.832;13.816;2022-10-31T06:17:25;19.27;;;11.30;;
17763;SDS011;22245;52.832;13.816;2022-10-31T06:21:05;20.37;;;11.10;;
17763;SDS011;22245;52.832;13.816;2022-10-31T06:24:28;21.67;;;11.43;;
17763;SDS011;22245;52.832;13.816;2022-10-31T06:27:57;24.83;;;11.00;;
17763;SDS011;22245;52.832;13.816;2022-10-31T06:31:27;19.73;;;10.30;;
17763;SDS011;22245;52.832;13.816;2022-10-31T06:34:54;19.77;;;10.63;;
17763;SDS011;22245;52.832;13.816;2022-10-31T06:38:19;25.67;;;10.93;;
17763;SDS011;22245;52.832;13.816;2022-10-31T06:41:41;19.97;;;10.60;;
17763;SDS011;22245;52.832;13.816;2022-10-31T06:45:04;26.37;;;10.90;;
17763;SDS011;22245;52.832;13.816;2022-10-31T06:48:58;19.73;;;10.07;;
17763;SDS011;22245;52.832;13.816;2022-10-31T06:52:51;20.37;;;10.63;;
17763;SDS011;22245;52.832;13.816;2022-10-31T06:56:13;19.03;;;10.17;;
17763;SDS011;22245;52.832;13.816;2022-10-31T06:59:40;21.90;;;9.83;;
17763;SDS011;22245;52.832;13.816;2022-10-31T07:03:02;17.13;;;10.13;;
17763;SDS011;22245;52.832;13.816;2022-10-31T07:06:34;21.40;;;10.53;;
17763;SDS011;22245;52.832;13.816;2022-10-31T07:10:13;19.50;;;9.93;;
17763;SDS011;22245;52.832;13.816;2022-10-31T07:13:43;20.00;;;10.90;;
17763;SDS011;22245;52.832;13.816;2022-10-31T07:17:08;19.03;;;10.70;;
17763;SDS011;22245;52.832;13.816;2022-10-31T07:20:51;21.93;;;11.17;;
17763;SDS011;22245;52.832;13.816;2022-10-31T07:24:14;18.10;;;11.23;;
17763;SDS011;22245;52.832;13.816;2022-10-31T07:27:37;22.27;;;11.80;;
17763;SDS011;22245;52.832;13.816;2022-10-31T07:31:03;19.17;;;12.07;;
17763;SDS011;22245;52.832;13.816;2022-10-31T07:34:25;20.43;;;12.07;;
17763;SDS011;22245;52.832;13.816;2022-10-31T07:38:10;21.27;;;12.50;;
17763;SDS011;22245;52.832;13.816;2022-10-31T07:41:33;23.33;;;13.23;;
17763;SDS011;22245;52.832;13.816;2022-10-31T07:45:03;20.70;;;12.27;;
17763;SDS011;22245;52.832;13.816;2022-10-31T07:48:46;20.53;;;12.27;;
17763;SDS011;22245;52.832;13.816;2022-10-31T07:52:26;24.33;;;11.93;;
17763;SDS011;22245;52.832;13.816;2022-10-31T07:55:56;20.33;;;12.18;;
17763;SDS011;22245;52.832;13.816;2022-10-31T07:59:25;26.77;;;12.33;;
17763;SDS011;22245;52.832;13.816;2022-10-31T08:03:00;24.95;;;13.20;;
17763;SDS011;22245;52.832;13.816;2022-10-31T08:06:56;21.40;;;13.57;;
17763;SDS011;22245;52.832;13.816;2022-10-31T08:10:24;23.25;;;14.75;;
17763;SDS011;22245;52.832;13.816;2022-10-31T08:13:48;28.38;;;15.60;;
17763;SDS011;22245;52.832;13.816;2022-10-31T08:17:14;30.85;;;16.40;;
17763;SDS011;22245;52.832;13.816;2022-10-31T08:20:48;30.10;;;16.55;;
17763;SDS011;22245;52.832;13.816;2022-10-31T08:24:14;29.48;;;17.13;;
17763;SDS011;22245;52.832;13.816;2022-10-31T08:27:36;27.80;;;16.80;;
17763;SDS011;22245;52.832;13.816;2022-10-31T08:31:09;30.25;;;17.67;;
17763;SDS011;22245;52.832;13.816;2022-10-31T08:34:34;33.78;;;17.48;;
17763;SDS011;22245;52.832;13.816;2022-10-31T08:38:26;27.98;;;16.33;;
17763;SDS011;22245;52.832;13.816;2022-10-31T08:41:48;28.45;;;16.95;;
17763;SDS011;22245;52.832;13.816;2022-10-31T08:45:10;30.33;;;16.70;;
17763;SDS011;22245;52.832;13.816;2022-10-31T08:48:32;28.50;;;16.52;;
17763;SDS011;22245;52.832;13.816;2022-10-31T08:51:55;28.15;;;17.15;;
17763;SDS011;22245;52.832;13.816;2022-10-31T08:55:24;32.30;;;16.70;;
17763;SDS011;22245;52.832;13.816;2022-10-31T08:58:56;30.15;;;15.95;;
17763;SDS011;22245;52.832;13.816;2022-10-31T09:02:58;29.35;;;16.52;;
17763;SDS011;22245;52.832;13.816;2022-10-31T09:06:23;26.17;;;15.63;;
17763;SDS011;22245;52.832;13.816;2022-10-31T09:09:46;27.77;;;16.52;;
17763;SDS011;22245;52.832;13.816;2022-10-31T09:13:11;27.02;;;16.02;;
17763;SDS011;22245;52.832;13.816;2022-10-31T09:16:52;24.20;;;16.40;;
17763;SDS011;22245;52.832;13.816;2022-10-31T09:20:19;29.77;;;17.83;;
17763;SDS011;22245;52.832;13.816;2022-10-31T09:23:44;31.52;;;17.83;;
17763;SDS011;22245;52.832;13.816;2022-10-31T09:27:07;31.75;;;19.58;;
17763;SDS011;22245;52.832;13.816;2022-10-31T09:30:35;31.45;;;17.95;;
17763;SDS011;22245;52.832;13.816;2022-10-31T09:33:57;28.80;;;17.10;;
17763;SDS011;22245;52.832;13.816;2022-10-31T09:37:42;27.52;;;16.67;;
17763;SDS011;22245;52.832;13.816;2022-10-31T09:41:06;28.13;;;17.45;;
17763;SDS011;22245;52.832;13.816;2022-10-31T09:44:43;25.17;;;16.02;;
17763;SDS011;22245;52.832;13.816;2022-10-31T09:48:44;26.23;;;17.30;;
17763;SDS011;22245;52.832;13.816;2022-10-31T09:52:29;28.85;;;17.15;;
17763;SDS011;22245;52.832;13.816;2022-10-31T09:56:10;34.45;;;17.75;;
17763;SDS011;22245;52.832;13.816;2022-10-31T09:59:37;29.23;;;18.40;;
17763;SDS011;22245;52.832;13.816;2022-10-31T10:03:05;34.13;;;18.00;;
17763;SDS011;22245;52.832;13.816;2022-10-31T10:06:34;26.13;;;17.25;;
17763;SDS011;22245;52.832;13.816;2022-10-31T10:10:39;29.45;;;18.15;;
17763;SDS011;22245;52.832;13.816;2022-10-31T10:14:31;30.30;;;18.70;;
17763;SDS011;22245;52.832;13.816;2022-10-31T10:18:03;31.15;;;17.70;;
17763;SDS011;22245;52.832;13.816;2022-10-31T10:21:35;38.55;;;18.55;;
17763;SDS011;22245;52.832;13.816;2022-10-31T10:25:12;32.28;;;17.33;;
17763;SDS011;22245;52.832;13.816;2022-10-31T10:28:37;32.67;;;17.73;;
17763;SDS011;22245;52.832;13.816;2022-10-31T10:32:05;31.00;;;17.92;;
17763;SDS011;22245;52.832;13.816;2022-10-31T10:35:36;30.92;;;18.38;;
17763;SDS011;22245;52.832;13.816;2022-10-31T10:39:05;32.83;;;18.98;;
17763;SDS011;22245;52.832;13.816;2022-10-31T10:42:33;29.33;;;18.77;;
17763;SDS011;22245;52.832;13.816;2022-10-31T10:46:17;30.23;;;17.23;;
17763;SDS011;22245;52.832;13.816;2022-10-31T10:49:58;36.38;;;18.85;;
17763;SDS011;22245;52.832;13.816;2022-10-31T10:53:33;38.42;;;22.70;;
17763;SDS011;22245;52.832;13.816;2022-10-31T10:57:38;33.40;;;19.10;;
17763;SDS011;22245;52.832;13.816;2022-10-31T11:01:11;31.73;;;17.13;;
17763;SDS011;22245;52.832;13.816;2022-10-31T11:04:42;34.05;;;18.85;;
17763;SDS011;22245;52.832;13.816;2022-10-31T11:08:25;34.15;;;17.95;;
17763;SDS011;22245;52.832;13.816;2022-10-31T11:11:51;32.00;;;18.80;;
17763;SDS011;22245;52.832;13.816;2022-10-31T11:15:22;28.48;;;18.40;;
17763;SDS011;22245;52.832;13.816;2022-10-31T11:18:51;31.98;;;17.40;;
17763;SDS011;22245;52.832;13.816;2022-10-31T11:22:21;28.52;;;16.75;;
17763;SDS011;22245;52.832;13.816;2022-10-31T11:26:01;29.77;;;16.48;;
17763;SDS011;22245;52.832;13.816;2022-10-31T11:29:24;31.98;;;17.42;;
17763;SDS011;22245;52.832;13.816;2022-10-31T11:32:58;29.33;;;16.63;;
17763;SDS011;22245;52.832;13.816;2022-10-31T11:36:24;31.33;;;17.58;;
17763;SDS011;22245;52.832;13.816;2022-10-31T11:39:49;29.90;;;18.00;;
17763;SDS011;22245;52.832;13.816;2022-10-31T11:43:15;31.27;;;17.10;;
17763;SDS011;22245;52.832;13.816;2022-10-31T11:46:40;27.63;;;16.00;;
17763;SDS011;22245;52.832;13.816;2022-10-31T11:50:08;30.40;;;16.08;;
17763;SDS011;22245;52.832;13.816;2022-10-31T11:53:33;26.17;;;16.60;;
17763;SDS011;22245;52.832;13.816;2022-10-31T11:56:56;26.70;;;15.93;;
17763;SDS011;22245;52.832;13.816;2022-10-31T12:00:22;29.50;;;16.20;;
17763;SDS011;22245;52.832;13.816;2022-10-31T12:03:48;30.33;;;16.92;;
17763;SDS011;22245;52.832;13.816;2022-10-31T12:07:23;25.58;;;16.35;;
17763;SDS011;22245;52.832;13.816;2022-10-31T12:10:47;34.78;;;17.65;;
17763;SDS011;22245;52.832;13.816;2022-10-31T12:14:25;29.13;;;16.83;;
17763;SDS011;22245;52.832;13.816;2022-10-31T12:18:00;28.27;;;17.25;;
17763;SDS011;22245;52.832;13.816;2022-10-31T12:21:50;26.25;;;16.38;;
17763;SDS011;22245;52.832;13.816;2022-10-31T12:25:28;32.33;;;17.38;;
17763;SDS011;22245;52.832;13.816;2022-10-31T12:29:02;29.08;;;16.77;;
17763;SDS011;22245;52.832;13.816;2022-10-31T12:32:35;31.33;;;17.55;;
17763;SDS011;22245;52.832;13.816;2022-10-31T12:36:08;29.77;;;17.25;;
17763;SDS011;22245;52.832;13.816;2022-10-31T12:39:43;35.55;;;18.50;;
17763;SDS011;22245;52.832;13.816;2022-10-31T12:43:19;33.00;;;18.30;;
17763;SDS011;22245;52.832;13.816;2022-10-31T12:46:55;34.50;;;18.80;;
17763;SDS011;22245;52.832;13.816;2022-10-31T12:50:34;35.08;;;18.55;;
17763;SDS011;22245;52.832;13.816;2022-10-31T12:54:10;30.20;;;17.83;;
17763;SDS011;22245;52.832;13.816;2022-10-31T12:57:47;30.00;;;18.05;;
17763;SDS011;22245;52.832;13.816;2022-10-31T13:01:14;31.55;;;17.65;;
17763;SDS011;22245;52.832;13.816;2022-10-31T13:04:43;33.80;;;18.38;;
17763;SDS011;22245;52.832;13.816;2022-10-31T13:08:10;31.45;;;17.83;;
17763;SDS011;22245;52.832;13.816;2022-10-31T13:11:37;31.92;;;18.70;;
17763;SDS011;22245;52.832;13.816;2022-10-31T13:15:05;35.20;;;19.10;;
17763;SDS011;22245;52.832;13.816;2022-10-31T13:18:37;32.63;;;18.77;;
17763;SDS011;22245;52.832;13.816;2022-10-31T13:22:02;29.63;;;18.58;;
17763;SDS011;22245;52.832;13.816;2022-10-31T13:25:28;32.38;;;18.48;;
17763;SDS011;22245;52.832;13.816;2022-10-31T13:28:54;33.22;;;18.92;;
17763;SDS011;22245;52.832;13.816;2022-10-31T13:32:22;36.70;;;18.58;;
17763;SDS011;22245;52.832;13.816;2022-10-31T13:35:48;30.10;;;19.00;;
17763;SDS011;22245;52.832;13.816;2022-10-31T13:39:18;33.90;;;18.38;;
17763;SDS011;22245;52.832;13.816;2022-10-31T13:42:52;31.30;;;18.40;;
17763;SDS011;22245;52.832;13.816;2022-10-31T13:46:22;26.45;;;16.35;;
17763;SDS011;22245;52.832;13.816;2022-10-31T13:49:45;27.67;;;17.30;;
17763;SDS011;22245;52.832;13.816;2022-10-31T13:53:12;26.42;;;16.50;;
17763;SDS011;22245;52.832;13.816;2022-10-31T13:56:35;31.48;;;17.30;;
17763;SDS011;22245;52.832;13.816;2022-10-31T13:59:58;27.98;;;16.80;;
17763;SDS011;22245;52.832;13.816;2022-10-31T14:03:31;33.28;;;16.80;;
17763;SDS011;22245;52.832;13.816;2022-10-31T14:07:17;28.20;;;15.70;;
17763;SDS011;22245;52.832;13.816;2022-10-31T14:10:46;26.08;;;16.52;;
17763;SDS011;22245;52.832;13.816;2022-10-31T14:14:13;28.92;;;15.60;;
17763;SDS011;22245;52.832;13.816;2022-10-31T14:17:38;29.88;;;16.58;;
17763;SDS011;22245;52.832;13.816;2022-10-31T14:21:16;26.02;;;15.38;;
17763;SDS011;22245;52.832;13.816;2022-10-31T14:25:02;28.80;;;15.50;;
17763;SDS011;22245;52.832;13.816;2022-10-31T14:28:46;25.73;;;16.35;;
17763;SDS011;22245;52.832;13.816;2022-10-31T14:32:15;28.20;;;15.98;;
17763;SDS011;22245;52.832;13.816;2022-10-31T14:35:51;26.95;;;15.25;;
17763;SDS011;22245;52.832;13.816;2022-10-31T14:39:17;26.17;;;15.10;;
17763;SDS011;22245;52.832;13.816;2022-10-31T14:42:52;28.23;;;16.00;;
17763;SDS011;22245;52.832;13.816;2022-10-31T14:46:38;27.73;;;17.23;;
17763;SDS011;22245;52.832;13.816;2022-10-31T14:50:17;33.85;;;17.63;;
17763;SDS011;22245;52.832;13.816;2022-10-31T14:53:45;31.88;;;18.48;;
17763;SDS011;22245;52.832;13.816;2022-10-31T14:57:13;28.52;;;17.98;;
17763;SDS011;22245;52.832;13.816;2022-10-31T15:00:37;32.85;;;18.65;;
17763;SDS011;22245;52.832;13.816;2022-10-31T15:04:04;30.90;;;16.83;;
17763;SDS011;22245;52.832;13.816;2022-10-31T15:07:48;29.88;;;17.40;;
17763;SDS011;22245;52.832;13.816;2022-10-31T15:11:16;30.92;;;16.35;;
17763;SDS011;22245;52.832;13.816;2022-10-31T15:14:39;27.95;;;16.73;;
17763;SDS011;22245;52.832;13.816;2022-10-31T15:18:03;25.98;;;15.23;;
17763;SDS011;22245;52.832;13.816;2022-10-31T15:21:27;24.75;;;15.18;;
17763;SDS011;22245;52.832;13.816;2022-10-31T15:24:50;27.23;;;13.95;;
17763;SDS011;22245;52.832;13.816;2022-10-31T15:28:19;23.35;;;15.27;;
17763;SDS011;22245;52.832;13.816;2022-10-31T15:31:50;26.95;;;14.48;;
17763;SDS011;22245;52.832;13.816;2022-10-31T15:35:19;21.95;;;14.38;;
17763;SDS011;22245;52.832;13.816;2022-10-31T15:38:46;24.17;;;14.48;;
17763;SDS011;22245;52.832;13.816;2022-10-31T15:42:16;26.10;;;14.40;;
17763;SDS011;22245;52.832;13.816;2022-10-31T15:45:41;27.20;;;14.45;;
17763;SDS011;22245;52.832;13.816;2022-10-31T15:49:10;24.98;;;14.73;;
17763;SDS011;22245;52.832;13.816;2022-10-31T15:52:42;26.77;;;15.73;;
17763;SDS011;22245;52.832;13.816;2022-10-31T15:56:10;25.88;;;14.73;;
17763;SDS011;22245;52.832;13.816;2022-10-31T15:59:36;30.35;;;16.15;;
17763;SDS011;22245;52.832;13.816;2022-10-31T16:03:04;28.98;;;16.20;;
17763;SDS011;22245;52.832;13.816;2022-10-31T16:06:26;25.30;;;16.48;;
17763;SDS011;22245;52.832;13.816;2022-10-31T16:09:49;31.35;;;17.67;;
17763;SDS011;22245;52.832;13.816;2022-10-31T16:13:14;27.13;;;16.17;;
17763;SDS011;22245;52.832;13.816;2022-10-31T16:16:40;30.63;;;19.25;;
17763;SDS011;22245;52.832;13.816;2022-10-31T16:20:03;30.85;;;18.23;;
17763;SDS011;22245;52.832;13.816;2022-10-31T16:23:27;26.95;;;15.82;;
17763;SDS011;22245;52.832;13.816;2022-10-31T16:26:52;29.67;;;16.25;;
17763;SDS011;22245;52.832;13.816;2022-10-31T16:30:29;28.08;;;16.60;;
17763;SDS011;22245;52.832;13.816;2022-10-31T16:34:11;29.23;;;16.25;;
17763;SDS011;22245;52.832;13.816;2022-10-31T16:37:38;25.90;;;16.23;;
17763;SDS011;22245;52.832;13.816;2022-10-31T16:41:03;28.70;;;16.05;;
17763;SDS011;22245;52.832;13.816;2022-10-31T16:44:25;26.70;;;16.55;;
17763;SDS011;22245;52.832;13.816;2022-10-31T16:47:50;30.52;;;18.08;;
17763;SDS011;22245;52.832;13.816;2022-10-31T16:51:12;41.03;;;25.80;;
17763;SDS011;22245;52.832;13.816;2022-10-31T16:54:34;47.72;;;27.20;;
17763;SDS011;22245;52.832;13.816;2022-10-31T16:57:56;32.47;;;19.63;;
17763;SDS011;22245;52.832;13.816;2022-10-31T17:01:19;40.15;;;21.77;;
17763;SDS011;22245;52.832;13.816;2022-10-31T17:04:44;38.15;;;21.30;;
17763;SDS011;22245;52.832;13.816;2022-10-31T17:08:11;31.85;;;20.75;;
17763;SDS011;22245;52.832;13.816;2022-10-31T17:11:33;36.03;;;23.48;;
17763;SDS011;22245;52.832;13.816;2022-10-31T17:15:13;40.13;;;24.83;;
17763;SDS011;22245;52.832;13.816;2022-10-31T17:18:38;44.30;;;25.75;;
17763;SDS011;22245;52.832;13.816;2022-10-31T17:22:03;38.85;;;21.77;;
17763;SDS011;22245;52.832;13.816;2022-10-31T17:25:26;38.08;;;22.23;;
17763;SDS011;22245;52.832;13.816;2022-10-31T17:28:50;36.63;;;20.42;;
17763;SDS011;22245;52.832;13.816;2022-10-31T17:32:12;32.70;;;21.20;;
17763;SDS011;22245;52.832;13.816;2022-10-31T17:35:35;36.95;;;22.50;;
17763;SDS011;22245;52.832;13.816;2022-10-31T17:39:03;34.83;;;22.52;;
17763;SDS011;22245;52.832;13.816;2022-10-31T17:42:29;37.63;;;21.98;;
17763;SDS011;22245;52.832;13.816;2022-10-31T17:45:50;36.92;;;24.30;;
17763;SDS011;22245;52.832;13.816;2022-10-31T17:49:11;37.50;;;25.02;;
17763;SDS011;22245;52.832;13.816;2022-10-31T17:52:33;37.60;;;25.83;;
17763;SDS011;22245;52.832;13.816;2022-10-31T17:56:00;40.60;;;23.92;;
17763;SDS011;22245;52.832;13.816;2022-10-31T17:59:22;44.33;;;25.65;;
17763;SDS011;22245;52.832;13.816;2022-10-31T18:02:48;36.70;;;23.73;;
17763;SDS011;22245;52.832;13.816;2022-10-31T18:06:10;45.67;;;28.02;;
17763;SDS011;22245;52.832;13.816;2022-10-31T18:09:33;39.85;;;26.75;;
17763;SDS011;22245;52.832;13.816;2022-10-31T18:12:57;45.78;;;28.27;;
17763;SDS011;22245;52.832;13.816;2022-10-31T18:16:20;47.22;;;27.52;;
17763;SDS011;22245;52.832;13.816;2022-10-31T18:19:42;47.30;;;31.88;;
17763;SDS011;22245;52.832;13.816;2022-10-31T18:23:07;49.53;;;31.48;;
17763;SDS011;22245;52.832;13.816;2022-10-31T18:26:28;56.17;;;33.92;;
17763;SDS011;22245;52.832;13.816;2022-10-31T18:29:56;59.45;;;33.70;;
17763;SDS011;22245;52.832;13.816;2022-10-31T18:33:18;63.47;;;33.88;;
17763;SDS011;22245;52.832;13.816;2022-10-31T18:36:41;61.78;;;33.42;;
17763;SDS011;22245;52.832;13.816;2022-10-31T18:40:13;63.47;;;33.80;;
17763;SDS011;22245;52.832;13.816;2022-10-31T18:43:35;65.25;;;33.95;;
17763;SDS011;22245;52.832;13.816;2022-10-31T18:46:59;64.47;;;33.63;;
17763;SDS011;22245;52.832;13.816;2022-10-31T18:50:20;73.10;;;35.20;;
17763;SDS011;22245;52.832;13.816;2022-10-31T18:53:42;75.40;;;36.97;;
17763;SDS011;22245;52.832;13.816;2022-10-31T18:57:10;71.40;;;36.72;;
17763;SDS011;22245;52.832;13.816;2022-10-31T19:00:32;77.47;;;37.40;;
17763;SDS011;22245;52.832;13.816;2022-10-31T19:04:12;75.78;;;35.42;;
17763;SDS011;22245;52.832;13.816;2022-10-31T19:07:35;73.43;;;37.05;;
17763;SDS011;22245;52.832;13.816;2022-10-31T19:11:13;72.32;;;34.67;;
17763;SDS011;22245;52.832;13.816;2022-10-31T19:14:37;80.10;;;36.95;;
17763;SDS011;22245;52.832;13.816;2022-10-31T19:17:58;79.95;;;37.45;;
17763;SDS011;22245;52.832;13.816;2022-10-31T19:21:24;75.43;;;36.22;;
17763;SDS011;22245;52.832;13.816;2022-10-31T19:24:49;66.80;;;34.78;;
17763;SDS011;22245;52.832;13.816;2022-10-31T19:28:14;72.03;;;34.88;;
17763;SDS011;22245;52.832;13.816;2022-10-31T19:31:35;75.32;;;35.13;;
17763;SDS011;22245;52.832;13.816;2022-10-31T19:34:57;73.88;;;37.63;;
17763;SDS011;22245;52.832;13.816;2022-10-31T19:38:20;72.30;;;36.33;;
17763;SDS011;22245;52.832;13.816;2022-10-31T19:41:43;71.65;;;34.65;;
17763;SDS011;22245;52.832;13.816;2022-10-31T19:45:06;69.90;;;34.47;;
17763;SDS011;22245;52.832;13.816;2022-10-31T19:48:28;70.82;;;36.65;;
17763;SDS011;22245;52.832;13.816;2022-10-31T19:51:50;75.35;;;36.85;;
17763;SDS011;22245;52.832;13.816;2022-10-31T19:55:15;71.88;;;35.53;;
17763;SDS011;22245;52.832;13.816;2022-10-31T19:58:37;78.57;;;36.25;;
17763;SDS011;22245;52.832;13.816;2022-10-31T20:02:00;78.57;;;35.15;;
17763;SDS011;22245;52.832;13.816;2022-10-31T20:05:23;73.28;;;35.38;;